createdAt,value
2023-02-03T00:00:19.404Z,10.20
2023-02-03T00:02:47.990Z,10.50
2023-02-03T00:05:16.579Z,10.80
2023-02-03T00:07:45.167Z,10.80
2023-02-03T00:10:14.372Z,9.80
2023-02-03T00:12:43.367Z,9.20
2023-02-03T00:15:12.471Z,9.10
2023-02-03T00:17:41.348Z,10.10
2023-02-03T00:20:11.369Z,11.50
2023-02-03T00:22:40.264Z,10.70
2023-02-03T00:25:08.996Z,10.80
2023-02-03T00:27:37.718Z,9.70
2023-02-03T00:30:06.721Z,9.60
2023-02-03T00:32:35.241Z,9.90
2023-02-03T00:35:05.757Z,10.00
2023-02-03T00:40:03.242Z,10.20
2023-02-03T00:42:34.895Z,9.50
2023-02-03T00:45:03.168Z,8.90
2023-02-03T00:47:31.549Z,9.10
2023-02-03T00:50:01.372Z,8.90
2023-02-03T00:52:30.048Z,10.00
2023-02-03T00:54:58.737Z,10.20
2023-02-03T00:57:27.117Z,10.80
2023-02-03T00:59:56.110Z,10.90
2023-02-03T01:02:25.007Z,9.30
2023-02-03T01:04:54.714Z,10.10
2023-02-03T01:07:23.050Z,9.90
2023-02-03T01:09:51.779Z,10.20
2023-02-03T01:12:21.183Z,10.50
2023-02-03T01:14:49.560Z,10.20
2023-02-03T01:17:18.548Z,10.50
2023-02-03T01:19:46.935Z,9.40
2023-02-03T01:22:15.213Z,9.60
2023-02-03T01:24:43.450Z,9.70
2023-02-03T01:27:13.508Z,10.90
2023-02-03T01:29:41.967Z,10.10
2023-02-03T01:32:10.265Z,10.70
2023-02-03T01:34:38.645Z,10.10
2023-02-03T01:37:07.780Z,10.20
2023-02-03T01:39:36.541Z,9.70
2023-02-03T01:42:06.070Z,10.20
2023-02-03T01:44:43.647Z,9.30
2023-02-03T01:47:50.111Z,9.80
2023-02-03T01:50:21.003Z,9.40
2023-02-03T01:52:54.977Z,9.50
2023-02-03T01:55:27.332Z,9.30
2023-02-03T01:57:58.646Z,9.50
2023-02-03T02:00:31.373Z,10.20
2023-02-03T02:03:00.108Z,10.30
2023-02-03T02:05:32.903Z,9.80
2023-02-03T02:08:01.317Z,9.80
2023-02-03T02:10:30.713Z,9.10
2023-02-03T02:15:49.655Z,9.20
2023-02-03T02:18:36.329Z,10.10
2023-02-03T02:21:34.696Z,9.70
2023-02-03T02:24:22.129Z,10.60
2023-02-03T02:27:33.540Z,10.10
2023-02-03T02:30:40.343Z,9.70
2023-02-03T02:33:32.223Z,10.60
2023-02-03T02:36:21.457Z,10.90
2023-02-03T02:39:18.138Z,8.60
2023-02-03T02:41:54.198Z,11.20
2023-02-03T02:44:25.536Z,11.10
2023-02-03T02:46:56.271Z,10.90
2023-02-03T02:49:30.589Z,10.20
2023-02-03T02:52:00.713Z,11.80
2023-02-03T02:54:32.777Z,12.10
2023-02-03T02:57:02.095Z,13.00
2023-02-03T02:59:30.883Z,13.40
2023-02-03T03:01:59.280Z,12.40
2023-02-03T03:04:28.514Z,9.70
2023-02-03T03:07:08.900Z,8.60
2023-02-03T03:09:42.799Z,11.90
2023-02-03T03:12:31.584Z,12.00
2023-02-03T03:15:03.153Z,12.70
2023-02-03T03:17:38.059Z,12.30
2023-02-03T03:20:15.251Z,12.30
2023-02-03T03:22:46.666Z,11.00
2023-02-03T03:25:19.412Z,12.10
2023-02-03T03:27:54.589Z,12.10
2023-02-03T03:30:24.301Z,10.90
2023-02-03T03:35:21.464Z,10.90
2023-02-03T03:37:54.927Z,10.70
2023-02-03T03:40:32.536Z,11.10
2023-02-03T03:43:03.854Z,12.50
2023-02-03T03:45:41.387Z,12.50
2023-02-03T03:48:17.333Z,11.60
2023-02-03T03:50:48.853Z,12.70
2023-02-03T03:53:17.168Z,13.40
2023-02-03T03:55:48.928Z,12.30
2023-02-03T03:58:26.121Z,13.00
2023-02-03T04:00:55.901Z,12.90
2023-02-03T04:03:31.995Z,14.00
2023-02-03T04:06:01.091Z,12.50
2023-02-03T04:08:29.673Z,13.20
2023-02-03T04:10:57.935Z,12.90
2023-02-03T04:13:26.241Z,12.70
2023-02-03T04:15:55.853Z,12.60
2023-02-03T04:18:24.843Z,13.20
2023-02-03T04:20:53.174Z,14.40
2023-02-03T04:23:21.704Z,13.00
2023-02-03T04:25:50.057Z,13.50
2023-02-03T04:28:18.759Z,13.30
2023-02-03T04:30:47.136Z,14.10
2023-02-03T04:33:15.635Z,15.40
2023-02-03T04:35:43.914Z,14.00
2023-02-03T04:38:12.294Z,13.70
2023-02-03T04:40:40.738Z,13.60
2023-02-03T04:43:09.162Z,13.40
2023-02-03T04:45:38.007Z,14.60
2023-02-03T04:48:06.536Z,10.20
2023-02-03T04:50:35.021Z,13.20
2023-02-03T04:53:03.913Z,13.50
2023-02-03T04:55:32.418Z,12.70
2023-02-03T04:58:01.293Z,14.80
2023-02-03T05:00:30.286Z,13.20
2023-02-03T05:02:59.721Z,13.80
2023-02-03T05:05:28.194Z,13.60
2023-02-03T05:07:57.652Z,10.30
2023-02-03T05:10:26.327Z,14.10
2023-02-03T05:12:56.195Z,13.90
2023-02-03T05:15:24.717Z,14.00
2023-02-03T05:17:53.760Z,12.80
2023-02-03T05:20:22.259Z,13.40
2023-02-03T05:22:51.635Z,15.30
2023-02-03T05:25:19.921Z,14.50
2023-02-03T05:27:48.232Z,14.00
2023-02-03T05:30:16.591Z,12.70
2023-02-03T05:32:45.699Z,14.00
2023-02-03T05:35:14.074Z,14.30
2023-02-03T08:15:53.134Z,3.10
2023-02-03T08:18:21.551Z,3.50
2023-02-03T08:20:50.412Z,3.80
2023-02-03T08:23:18.616Z,3.40
2023-02-03T08:25:51.478Z,3.40
2023-02-03T08:28:20.878Z,3.70
2023-02-03T08:30:49.508Z,3.20
2023-02-03T08:33:20.312Z,3.50
2023-02-03T08:35:53.236Z,3.70
2023-02-03T08:38:22.033Z,3.50
2023-02-03T08:40:50.676Z,3.40
2023-02-03T08:43:19.665Z,3.70
2023-02-03T08:45:48.070Z,3.70
2023-02-03T08:48:17.044Z,4.10
2023-02-03T08:50:52.195Z,3.70
2023-02-03T08:53:20.562Z,4.30
2023-02-03T08:55:51.403Z,3.90
2023-02-03T08:58:20.298Z,3.50
2023-02-03T09:00:50.142Z,4.10
2023-02-03T09:05:47.283Z,4.00
2023-02-03T09:08:17.818Z,4.00
2023-02-03T09:10:46.503Z,4.20
2023-02-03T09:13:15.097Z,4.30
2023-02-03T09:15:43.571Z,4.10
2023-02-03T09:18:12.871Z,2.50
2023-02-03T09:20:41.565Z,3.60
2023-02-03T09:23:10.863Z,3.90
2023-02-03T09:25:39.549Z,4.30
2023-02-03T09:28:08.472Z,4.10
2023-02-03T09:30:37.053Z,3.70
2023-02-03T09:33:05.916Z,3.90
2023-02-03T09:35:34.297Z,3.80
2023-02-03T09:38:02.774Z,3.60
2023-02-03T09:40:36.072Z,3.50
2023-02-03T09:43:46.229Z,3.20
2023-02-03T09:46:44.921Z,3.20
2023-02-03T09:49:21.808Z,3.30
2023-02-03T09:51:59.808Z,3.60
2023-02-03T09:54:43.714Z,3.90
2023-02-03T09:57:21.753Z,3.80
2023-02-03T09:59:50.357Z,3.70
2023-02-03T10:02:33.904Z,3.70
2023-02-03T10:05:13.721Z,3.70
2023-02-03T10:08:01.660Z,3.80
2023-02-03T10:10:32.908Z,3.80
2023-02-03T10:13:24.945Z,3.70
2023-02-03T10:16:00.804Z,3.50
2023-02-03T10:18:40.957Z,3.00
2023-02-03T10:21:21.828Z,3.00
2023-02-03T10:23:51.449Z,3.20
2023-02-03T10:26:25.051Z,3.10
2023-02-03T10:28:57.003Z,2.90
2023-02-03T10:31:27.883Z,3.00
2023-02-03T10:34:13.433Z,2.80
2023-02-03T10:36:48.055Z,2.60
2023-02-03T10:39:22.171Z,3.10
2023-02-03T10:41:50.550Z,2.80
2023-02-03T10:44:19.133Z,2.90
2023-02-03T10:46:47.515Z,2.50
2023-02-03T10:49:16.842Z,2.50
2023-02-03T10:51:49.288Z,2.80
2023-02-03T10:54:34.090Z,2.50
2023-02-03T10:57:05.224Z,2.80
2023-02-03T10:59:37.069Z,2.30
2023-02-03T11:02:11.388Z,2.20
2023-02-03T11:04:40.486Z,2.00
2023-02-03T11:07:25.765Z,2.20
2023-02-03T11:09:54.245Z,1.90
2023-02-03T11:12:23.139Z,2.00
2023-02-03T11:14:52.586Z,2.30
2023-02-03T11:17:27.340Z,2.10
2023-02-03T11:20:01.648Z,2.10
2023-02-03T11:22:31.201Z,2.00
2023-02-03T11:24:59.584Z,2.10
2023-02-03T11:27:30.058Z,1.70
2023-02-03T11:30:17.440Z,1.90
2023-02-03T11:32:46.967Z,2.00
2023-02-03T11:35:25.483Z,2.10
2023-02-03T11:37:58.054Z,2.20
2023-02-03T11:40:28.212Z,2.50
2023-02-03T11:42:56.861Z,2.00
2023-02-03T11:45:30.331Z,2.00
2023-02-03T11:48:10.719Z,2.10
2023-02-03T11:50:45.387Z,1.80
2023-02-03T11:53:28.987Z,2.10
2023-02-03T11:56:23.684Z,2.40
2023-02-03T11:58:55.034Z,2.40
2023-02-03T12:01:58.748Z,2.10
2023-02-03T12:05:09.738Z,2.50
2023-02-03T12:07:47.838Z,2.00
2023-02-03T12:10:51.551Z,2.50
2023-02-03T12:13:23.308Z,2.30
2023-02-03T12:16:10.794Z,2.30
2023-02-03T12:19:09.527Z,2.70
2023-02-03T12:21:42.330Z,2.90
2023-02-03T12:24:13.356Z,2.70
2023-02-03T12:26:57.923Z,2.60
2023-02-03T12:29:27.843Z,2.70
2023-02-03T12:32:17.837Z,2.70
2023-02-03T12:38:13.363Z,2.60
2023-02-03T12:40:50.238Z,2.40
2023-02-03T12:43:26.712Z,2.10
2023-02-03T12:46:01.422Z,2.00
2023-02-03T12:48:45.605Z,2.10
2023-02-03T12:51:16.746Z,2.20
2023-02-03T12:53:49.319Z,1.60
2023-02-03T12:56:24.832Z,2.00
2023-02-03T12:58:57.139Z,1.90
2023-02-03T13:01:31.321Z,2.00
2023-02-03T13:04:18.686Z,2.10
2023-02-03T13:07:05.704Z,2.30
2023-02-03T13:10:00.400Z,2.00
2023-02-03T13:12:31.553Z,2.00
2023-02-03T13:15:24.894Z,2.20
2023-02-03T13:18:01.588Z,2.10
2023-02-03T13:20:31.626Z,2.30
2023-02-03T13:25:54.909Z,2.10
2023-02-03T13:28:26.451Z,2.10
2023-02-03T13:31:17.855Z,2.40
2023-02-03T13:33:57.026Z,2.50
2023-02-03T13:36:44.844Z,2.90
2023-02-03T13:39:35.038Z,2.60
2023-02-03T16:14:36.962Z,2.20
2023-02-03T16:17:06.445Z,2.70
2023-02-03T16:22:31.852Z,2.30
2023-02-03T16:25:36.629Z,2.50
2023-02-03T16:28:29.250Z,2.60
2023-02-03T16:31:21.133Z,2.40
2023-02-03T16:34:10.516Z,2.60
2023-02-03T16:37:02.111Z,2.10
2023-02-03T16:39:49.739Z,2.20
2023-02-03T16:42:38.709Z,2.10
2023-02-03T16:45:33.350Z,1.60
2023-02-03T16:48:21.676Z,2.30
2023-02-03T16:50:54.248Z,2.10
2023-02-03T16:53:32.231Z,2.20
2023-02-03T16:56:02.601Z,2.50
2023-02-03T16:58:31.588Z,3.30
2023-02-03T17:01:02.401Z,2.50
2023-02-03T17:03:33.268Z,2.60
2023-02-03T17:06:06.965Z,2.40
2023-02-03T17:08:36.139Z,2.70
2023-02-03T17:11:17.527Z,2.40
2023-02-03T17:13:46.651Z,2.10
2023-02-03T17:16:17.428Z,2.80
2023-02-03T17:18:46.673Z,2.80
2023-02-03T17:21:20.385Z,2.50
2023-02-03T17:23:48.705Z,2.50
2023-02-03T17:26:17.328Z,2.40
2023-02-03T17:28:45.912Z,2.80
2023-02-03T17:31:18.937Z,2.80
2023-02-03T17:33:50.978Z,3.10
2023-02-03T17:36:20.150Z,2.70
2023-02-03T17:55:27.285Z,2.40
2023-02-03T17:57:55.634Z,3.00
2023-02-03T18:00:24.216Z,2.40
2023-02-03T18:02:52.699Z,2.90
2023-02-03T18:05:21.073Z,2.40
2023-02-03T18:07:50.572Z,2.60
2023-02-03T18:10:19.172Z,2.90
2023-02-03T18:12:48.769Z,2.10
2023-02-03T18:15:18.076Z,2.40
2023-02-03T18:17:49.006Z,2.70
2023-02-03T18:20:17.592Z,2.50
2023-02-03T18:22:46.791Z,2.20
2023-02-03T18:25:17.523Z,2.70
2023-02-03T18:27:46.841Z,2.40
2023-02-03T18:30:15.708Z,2.00
2023-02-03T18:32:45.007Z,2.20
2023-02-03T18:35:17.098Z,2.40
2023-02-03T18:37:46.100Z,2.50
2023-02-03T18:40:14.875Z,2.60
2023-02-03T18:42:43.459Z,2.20
2023-02-03T18:45:12.252Z,3.00
2023-02-03T18:47:41.355Z,2.60
2023-02-03T18:50:10.248Z,2.80
2023-02-03T18:52:39.450Z,2.50
2023-02-03T18:55:08.571Z,2.60
2023-02-03T18:57:37.130Z,2.80
2023-02-03T19:00:06.944Z,2.30
2023-02-03T19:02:35.892Z,2.50
2023-02-03T19:05:05.658Z,2.90
2023-02-03T19:07:34.351Z,2.50
2023-02-03T19:10:02.816Z,2.80
2023-02-03T19:12:31.404Z,2.60
2023-02-03T19:14:59.791Z,2.90
2023-02-03T19:17:28.585Z,3.50
2023-02-03T19:19:57.068Z,3.60
2023-02-03T19:22:25.559Z,3.60
2023-02-03T19:24:53.937Z,2.90
2023-02-03T19:27:22.931Z,2.90
2023-02-03T19:29:51.522Z,3.00
2023-02-03T19:32:20.048Z,3.00
2023-02-03T19:34:48.689Z,3.10
2023-02-03T19:37:17.173Z,3.30
2023-02-03T19:39:50.568Z,3.10
2023-02-03T19:42:18.849Z,3.40
2023-02-03T19:44:47.738Z,3.90
2023-02-03T19:47:16.435Z,3.20
2023-02-03T19:49:44.914Z,3.00
2023-02-03T19:52:13.397Z,3.10
2023-02-03T19:54:42.300Z,2.90
2023-02-03T19:57:10.676Z,2.80
2023-02-03T19:59:39.163Z,3.20
2023-02-03T20:02:13.985Z,2.50
2023-02-03T20:04:44.417Z,2.50
2023-02-03T20:07:15.362Z,2.60
2023-02-03T20:09:44.866Z,2.60
2023-02-03T20:12:14.274Z,2.10
2023-02-03T20:17:15.350Z,2.50
2023-02-03T20:19:43.745Z,2.60
2023-02-03T20:22:12.305Z,2.80
2023-02-03T20:24:41.503Z,2.20
2023-02-03T20:27:09.885Z,2.40
2023-02-03T20:29:38.878Z,2.20
2023-02-03T20:32:07.694Z,2.20
2023-02-03T20:34:36.053Z,2.10
2023-02-03T20:37:06.996Z,2.00
2023-02-03T20:39:35.574Z,2.60
2023-02-03T20:42:11.432Z,2.20
2023-02-03T20:44:40.735Z,2.20
2023-02-03T20:47:19.058Z,2.70
2023-02-03T20:49:48.246Z,2.40
2023-02-03T20:52:18.166Z,2.50
2023-02-03T20:54:46.547Z,2.10
2023-02-03T20:57:16.801Z,2.40
2023-02-03T20:59:45.429Z,2.30
2023-02-03T21:02:23.238Z,3.30
2023-02-03T21:04:57.918Z,3.30
2023-02-03T21:07:29.334Z,3.50
2023-02-03T21:09:58.777Z,3.40
2023-02-03T21:12:31.335Z,3.60
2023-02-03T21:14:59.924Z,3.60
2023-02-03T21:17:28.712Z,3.30
2023-02-03T21:19:57.097Z,3.10
2023-02-03T21:22:30.523Z,3.70
2023-02-03T21:25:00.092Z,3.10
2023-02-03T21:29:58.783Z,2.80
2023-02-03T21:32:35.092Z,2.90
2023-02-03T21:35:24.136Z,2.50
2023-02-03T21:37:56.203Z,2.90
2023-02-03T21:40:26.841Z,3.00
2023-02-03T21:42:56.455Z,2.90
2023-02-03T21:45:28.781Z,2.70
2023-02-03T21:47:58.226Z,2.80
2023-02-03T21:50:40.950Z,2.70
2023-02-03T21:53:09.246Z,2.80
2023-02-03T21:55:43.041Z,2.70
2023-02-03T21:58:12.232Z,2.70
2023-02-03T22:00:48.118Z,2.70
2023-02-03T22:03:16.744Z,2.60
2023-02-03T22:05:45.570Z,2.70
2023-02-03T22:08:23.235Z,2.40
2023-02-03T22:10:51.545Z,2.70
2023-02-03T22:13:20.437Z,2.30
2023-02-03T22:15:50.661Z,2.20
2023-02-03T22:18:19.253Z,2.30
2023-02-03T22:20:47.730Z,2.40
2023-02-03T22:23:16.212Z,2.30
2023-02-03T22:25:44.594Z,2.50
2023-02-03T22:28:13.003Z,2.30
2023-02-03T22:30:42.188Z,1.90
2023-02-03T22:33:11.374Z,2.40
2023-02-03T22:35:40.470Z,2.00
2023-02-03T22:38:08.853Z,2.50
2023-02-03T22:40:37.538Z,2.30
2023-02-03T22:43:06.336Z,2.90
2023-02-03T22:45:34.709Z,2.40
2023-02-03T22:48:03.194Z,2.40
2023-02-03T22:50:35.910Z,2.20
2023-02-03T22:53:05.380Z,2.00
2023-02-03T22:55:33.967Z,2.70
2023-02-03T22:58:02.770Z,2.50
2023-02-03T23:00:32.421Z,2.40
2023-02-03T23:03:01.325Z,1.90
2023-02-03T23:05:29.955Z,2.40
2023-02-03T23:07:58.540Z,2.80
2023-02-03T23:10:31.188Z,3.70
2023-02-03T23:13:01.035Z,3.50
2023-02-03T23:15:30.786Z,3.50
2023-02-03T23:17:59.326Z,2.80
2023-02-03T23:20:28.479Z,2.70
2023-02-03T23:22:57.728Z,3.60
2023-02-03T23:25:27.552Z,6.70
2023-02-03T23:27:55.911Z,5.50
2023-02-03T23:30:24.405Z,3.70
2023-02-03T23:32:52.785Z,3.00
2023-02-03T23:35:40.213Z,2.70
2023-02-03T23:38:10.335Z,2.60
2023-02-03T23:40:39.022Z,3.20
2023-02-03T23:43:07.404Z,3.40
2023-02-03T23:48:06.312Z,3.00
2023-02-03T23:50:35.215Z,3.20
2023-02-03T23:53:04.409Z,3.30
2023-02-03T23:55:36.604Z,3.00
